createdAt,value
2023-09-01T00:01:18.530Z,100.00
2023-09-01T00:03:45.585Z,100.00
2023-09-01T00:06:14.190Z,100.00
2023-09-01T00:08:42.153Z,100.00
2023-09-01T00:11:09.019Z,100.00
2023-09-01T00:13:35.974Z,100.00
2023-09-01T00:16:06.808Z,100.00
2023-09-01T00:18:34.964Z,100.00
2023-09-01T00:21:02.502Z,100.00
2023-09-01T00:23:29.509Z,100.00
2023-09-01T00:26:02.926Z,100.00
2023-09-01T00:28:29.999Z,100.00
2023-09-01T00:30:58.062Z,100.00
2023-09-01T00:33:28.153Z,100.00
2023-09-01T00:35:56.362Z,100.00
2023-09-01T00:38:26.184Z,100.00
2023-09-01T00:40:54.007Z,100.00
2023-09-01T00:43:20.872Z,100.00
2023-09-01T00:45:48.380Z,100.00
2023-09-01T00:48:15.690Z,100.00
2023-09-01T00:50:44.319Z,100.00
2023-09-01T00:53:11.257Z,100.00
2023-09-01T00:55:38.795Z,100.00
2023-09-01T00:58:06.665Z,100.00
2023-09-01T01:00:34.147Z,100.00
2023-09-01T01:03:09.220Z,100.00
2023-09-01T01:05:55.931Z,100.00
2023-09-01T01:08:25.640Z,100.00
2023-09-01T01:11:17.722Z,100.00
2023-09-01T01:13:56.497Z,100.00
2023-09-01T01:16:25.420Z,100.00
2023-09-01T01:18:54.382Z,100.00
2023-09-01T01:21:25.857Z,100.00
2023-09-01T01:23:54.050Z,100.00
2023-09-01T01:26:22.063Z,100.00
2023-09-01T01:28:48.988Z,100.00
2023-09-01T01:31:15.901Z,100.00
2023-09-01T01:33:53.863Z,100.00
2023-09-01T01:36:50.567Z,100.00
2023-09-01T01:39:22.438Z,100.00
2023-09-01T01:41:57.856Z,100.00
2023-09-01T01:44:38.114Z,100.00
2023-09-01T01:47:06.380Z,100.00
2023-09-01T01:49:33.402Z,100.00
2023-09-01T01:52:01.694Z,100.00
2023-09-01T01:54:30.846Z,100.00
2023-09-01T01:56:58.234Z,100.00
2023-09-01T01:59:24.993Z,100.00
2023-09-01T02:01:52.093Z,100.00
2023-09-01T02:04:18.927Z,100.00
2023-09-01T02:06:45.777Z,100.00
2023-09-01T02:09:15.408Z,100.00
2023-09-01T02:11:42.540Z,100.00
2023-09-01T02:14:09.376Z,100.00
2023-09-01T02:16:36.433Z,100.00
2023-09-01T02:19:03.242Z,100.00
2023-09-01T02:21:30.025Z,100.00
2023-09-01T02:24:00.000Z,100.00
2023-09-01T02:26:30.292Z,100.00
2023-09-01T02:28:57.073Z,100.00
2023-09-01T02:31:26.373Z,100.00
2023-09-01T02:33:53.204Z,100.00
2023-09-01T02:36:30.653Z,100.00
2023-09-01T02:38:58.502Z,100.00
2023-09-01T02:41:25.629Z,100.00
2023-09-01T02:43:53.377Z,100.00
2023-09-01T02:46:21.524Z,100.00
2023-09-01T02:48:48.860Z,100.00
2023-09-01T02:51:19.059Z,100.00
2023-09-01T02:53:46.144Z,100.00
2023-09-01T02:56:13.187Z,100.00
2023-09-01T02:58:40.515Z,100.00
2023-09-01T03:01:09.762Z,100.00
2023-09-01T03:03:42.028Z,100.00
2023-09-01T03:06:12.453Z,100.00
2023-09-01T03:08:40.042Z,100.00
2023-09-01T03:11:07.199Z,100.00
2023-09-01T03:13:34.611Z,100.00
2023-09-01T03:16:01.906Z,100.00
2023-09-01T03:18:29.117Z,100.00
2023-09-01T03:20:57.739Z,100.00
2023-09-01T03:23:24.766Z,100.00
2023-09-01T03:25:56.259Z,100.00
2023-09-01T03:28:23.127Z,100.00
2023-09-01T03:30:50.298Z,100.00
2023-09-01T03:33:17.500Z,100.00
2023-09-01T03:35:45.150Z,100.00
2023-09-01T03:38:12.627Z,100.00
2023-09-01T03:40:39.653Z,100.00
2023-09-01T03:43:10.088Z,100.00
2023-09-01T03:45:37.079Z,100.00
2023-09-01T03:48:04.482Z,100.00
2023-09-01T03:50:35.600Z,100.00
2023-09-01T03:53:02.809Z,100.00
2023-09-01T03:55:29.639Z,100.00
2023-09-01T03:57:56.434Z,100.00
2023-09-01T04:00:23.623Z,100.00
2023-09-01T04:02:50.407Z,100.00
2023-09-01T04:05:17.414Z,100.00
2023-09-01T04:07:44.283Z,100.00
2023-09-01T04:10:11.375Z,100.00
2023-09-01T04:12:38.130Z,100.00
2023-09-01T04:15:07.953Z,100.00
2023-09-01T04:17:34.909Z,100.00
2023-09-01T04:20:01.698Z,100.00
2023-09-01T04:22:29.113Z,100.00
2023-09-01T04:24:55.912Z,100.00
2023-09-01T04:27:24.233Z,100.00
2023-09-01T04:30:03.718Z,100.00
2023-09-01T04:32:34.971Z,100.00
2023-09-01T04:35:01.826Z,100.00
2023-09-01T04:37:28.541Z,100.00
2023-09-01T04:39:55.328Z,100.00
2023-09-01T04:42:22.132Z,100.00
2023-09-01T04:44:49.069Z,100.00
2023-09-01T04:47:15.810Z,100.00
2023-09-01T04:49:42.493Z,100.00
2023-09-01T04:52:09.213Z,100.00
2023-09-01T04:54:35.950Z,100.00
2023-09-01T04:57:03.366Z,100.00
2023-09-01T04:59:31.234Z,100.00
2023-09-01T05:01:59.123Z,100.00
2023-09-01T05:04:25.898Z,100.00
2023-09-01T05:06:54.155Z,100.00
2023-09-01T05:09:21.112Z,100.00
2023-09-01T05:11:48.059Z,100.00
2023-09-01T05:14:14.881Z,100.00
2023-09-01T05:16:42.300Z,100.00
2023-09-01T05:19:09.099Z,100.00
2023-09-01T05:21:35.809Z,100.00
2023-09-01T05:24:02.702Z,100.00
2023-09-01T05:26:29.471Z,100.00
2023-09-01T05:28:56.396Z,100.00
2023-09-01T05:31:23.194Z,100.00
2023-09-01T05:33:50.089Z,100.00
2023-09-01T05:36:16.967Z,100.00
2023-09-01T05:38:43.744Z,100.00
2023-09-01T05:41:14.234Z,100.00
2023-09-01T05:43:41.397Z,100.00
2023-09-01T05:46:08.355Z,100.00
2023-09-01T05:48:37.484Z,100.00
2023-09-01T05:51:04.516Z,100.00
2023-09-01T05:53:33.968Z,100.00
2023-09-01T05:56:00.930Z,100.00
2023-09-01T05:58:27.671Z,100.00
2023-09-01T06:00:54.464Z,100.00
2023-09-01T06:03:21.290Z,100.00
2023-09-01T06:05:48.069Z,97.87
2023-09-01T06:08:15.075Z,98.61
2023-09-01T06:10:42.007Z,97.08
2023-09-01T06:13:08.765Z,99.05
2023-09-01T06:15:35.454Z,93.43
2023-09-01T06:18:02.484Z,92.71
2023-09-01T06:20:29.683Z,92.79
2023-09-01T06:22:57.507Z,88.94
2023-09-01T06:25:24.433Z,87.67
2023-09-01T06:27:51.159Z,85.46
2023-09-01T06:30:18.305Z,86.60
2023-09-01T06:32:48.247Z,86.04
2023-09-01T06:35:16.356Z,82.01
2023-09-01T06:37:43.340Z,82.77
2023-09-01T06:40:10.760Z,82.12
2023-09-01T06:42:37.500Z,82.65
2023-09-01T06:45:05.129Z,81.41
2023-09-01T06:47:31.731Z,80.91
2023-09-01T06:49:58.493Z,78.79
2023-09-01T06:52:25.229Z,76.79
2023-09-01T06:54:52.334Z,77.56
2023-09-01T06:57:19.142Z,77.72
2023-09-01T06:59:45.859Z,75.23
2023-09-01T07:02:12.648Z,73.25
2023-09-01T07:04:39.538Z,72.59
2023-09-01T07:07:06.390Z,70.51
2023-09-01T07:09:33.324Z,71.28
2023-09-01T07:12:00.228Z,70.10
2023-09-01T07:14:27.320Z,70.12
2023-09-01T07:16:54.207Z,71.08
2023-09-01T07:19:21.205Z,67.84
2023-09-01T07:21:47.948Z,65.41
2023-09-01T07:24:14.738Z,62.26
2023-09-01T07:26:41.529Z,62.81
2023-09-01T07:29:08.903Z,62.74
2023-09-01T07:31:35.866Z,62.18
2023-09-01T07:34:02.665Z,61.46
2023-09-01T07:36:30.754Z,60.66
2023-09-01T07:38:57.553Z,61.20
2023-09-01T07:41:24.277Z,59.58
2023-09-01T07:43:51.307Z,59.43
2023-09-01T07:46:18.245Z,59.07
2023-09-01T07:48:45.041Z,58.06
2023-09-01T07:51:12.079Z,58.40
2023-09-01T07:53:39.847Z,58.24
2023-09-01T07:56:06.845Z,58.67
2023-09-01T07:58:33.605Z,58.87
2023-09-01T08:01:00.493Z,59.07
2023-09-01T08:03:27.804Z,58.30
2023-09-01T08:05:55.132Z,57.29
2023-09-01T08:08:22.282Z,57.10
2023-09-01T08:10:49.052Z,54.92
2023-09-01T08:13:16.048Z,53.52
2023-09-01T08:15:42.886Z,52.97
2023-09-01T08:18:09.972Z,52.96
2023-09-01T08:20:37.251Z,53.48
2023-09-01T08:23:04.216Z,54.44
2023-09-01T08:25:31.807Z,52.43
2023-09-01T08:27:58.586Z,52.13
2023-09-01T08:30:25.494Z,53.08
2023-09-01T08:32:52.184Z,50.71
2023-09-01T08:35:19.282Z,50.87
2023-09-01T08:37:46.299Z,51.36
2023-09-01T08:40:13.439Z,50.90
2023-09-01T08:42:50.794Z,50.54
2023-09-01T08:45:20.503Z,48.99
2023-09-01T08:47:50.018Z,49.16
2023-09-01T08:50:18.742Z,49.16
2023-09-01T08:52:47.416Z,48.89
2023-09-01T08:55:15.209Z,47.50
2023-09-01T08:57:42.195Z,47.06
2023-09-01T09:00:13.311Z,47.79
2023-09-01T09:03:01.129Z,47.92
2023-09-01T09:05:34.985Z,47.26
2023-09-01T09:08:06.502Z,47.82
2023-09-01T09:10:39.335Z,47.18
2023-09-01T09:13:28.478Z,46.51
2023-09-01T09:16:07.903Z,46.55
2023-09-01T09:18:35.548Z,46.72
2023-09-01T09:21:03.211Z,46.12
2023-09-01T09:24:11.181Z,45.68
2023-09-01T09:26:42.899Z,45.21
2023-09-01T09:29:12.692Z,45.16
2023-09-01T09:31:45.706Z,43.60
2023-09-01T09:34:25.947Z,44.43
2023-09-01T09:36:52.588Z,44.01
2023-09-01T09:39:27.809Z,44.07
2023-09-01T09:41:56.031Z,44.97
2023-09-01T09:44:32.435Z,44.66
2023-09-01T09:46:59.334Z,44.53
2023-09-01T09:49:27.096Z,43.24
2023-09-01T09:51:55.007Z,43.04
2023-09-01T09:54:23.831Z,43.45
2023-09-01T09:56:52.646Z,41.71
2023-09-01T09:59:34.292Z,41.65
2023-09-01T10:02:13.360Z,43.35
2023-09-01T10:04:40.995Z,42.87
2023-09-01T10:07:08.273Z,41.68
2023-09-01T10:09:35.043Z,41.63
2023-09-01T10:12:02.749Z,41.30
2023-09-01T10:14:31.124Z,42.34
2023-09-01T10:16:59.691Z,41.78
2023-09-01T10:19:27.450Z,40.93
2023-09-01T10:21:54.162Z,41.50
2023-09-01T10:24:21.092Z,41.18
2023-09-01T10:27:08.277Z,41.30
2023-09-01T10:29:36.099Z,40.42
2023-09-01T10:32:19.550Z,41.21
2023-09-01T10:34:53.777Z,41.15
2023-09-01T10:37:31.905Z,40.66
2023-09-01T10:39:59.132Z,40.67
2023-09-01T10:42:45.461Z,40.22
2023-09-01T10:45:13.321Z,40.84
2023-09-01T10:47:43.557Z,40.10
2023-09-01T10:50:13.550Z,40.76
2023-09-01T10:52:43.367Z,39.72
2023-09-01T10:55:10.532Z,39.53
2023-09-01T10:57:41.353Z,40.42
2023-09-01T11:00:32.614Z,42.58
2023-09-01T11:03:34.660Z,42.84
2023-09-01T11:06:07.594Z,42.07
2023-09-01T11:08:34.475Z,41.20
2023-09-01T11:11:11.270Z,40.86
2023-09-01T11:13:38.105Z,40.70
2023-09-01T11:16:09.475Z,40.26
2023-09-01T11:18:36.457Z,40.51
2023-09-01T11:21:04.206Z,40.88
2023-09-01T11:23:31.108Z,41.63
2023-09-01T11:26:02.269Z,40.49
2023-09-01T11:28:30.165Z,41.13
2023-09-01T11:31:05.011Z,40.34
2023-09-01T11:33:38.049Z,40.13
2023-09-01T11:36:12.993Z,39.64
2023-09-01T11:38:45.461Z,40.59
2023-09-01T11:41:19.983Z,39.00
2023-09-01T11:43:47.586Z,38.01
2023-09-01T11:46:15.240Z,39.20
2023-09-01T11:48:42.278Z,40.70
2023-09-01T11:51:10.473Z,41.45
2023-09-01T11:53:38.188Z,39.71
2023-09-01T11:56:23.626Z,40.24
2023-09-01T11:58:52.282Z,41.25
2023-09-01T12:01:21.117Z,40.94
2023-09-01T12:03:52.381Z,39.98
2023-09-01T12:06:20.120Z,41.30
2023-09-01T12:08:48.049Z,39.15
2023-09-01T12:11:15.672Z,39.39
2023-09-01T12:13:45.722Z,40.23
2023-09-01T12:16:24.479Z,37.74
2023-09-01T12:18:53.217Z,38.90
2023-09-01T12:21:20.327Z,38.10
2023-09-01T12:23:48.071Z,38.46
2023-09-01T12:26:16.756Z,38.39
2023-09-01T12:28:44.692Z,38.13
2023-09-01T12:31:13.110Z,38.64
2023-09-01T12:33:41.616Z,38.05
2023-09-01T12:36:08.761Z,39.58
2023-09-01T12:38:36.132Z,38.72
2023-09-01T12:41:03.380Z,38.96
2023-09-01T12:43:30.506Z,37.93
2023-09-01T12:45:58.687Z,38.36
2023-09-01T12:48:25.580Z,38.74
2023-09-01T12:50:52.441Z,39.04
2023-09-01T12:53:19.902Z,38.63
2023-09-01T12:55:48.855Z,38.30
2023-09-01T12:58:16.191Z,36.68
2023-09-01T13:00:44.657Z,37.04
2023-09-01T13:03:11.901Z,37.87
2023-09-01T13:05:38.831Z,38.41
2023-09-01T13:08:05.824Z,37.70
2023-09-01T13:10:32.763Z,38.77
2023-09-01T13:13:00.509Z,39.06
2023-09-01T13:15:27.276Z,38.55
2023-09-01T13:17:54.310Z,38.46
2023-09-01T13:20:21.456Z,37.72
2023-09-01T13:22:49.880Z,38.21
2023-09-01T13:25:16.945Z,38.29
2023-09-01T13:27:43.814Z,38.07
2023-09-01T13:30:10.785Z,38.30
2023-09-01T13:32:37.543Z,38.42
2023-09-01T13:35:04.680Z,37.78
2023-09-01T13:37:31.492Z,37.51
2023-09-01T13:39:59.682Z,37.82
2023-09-01T13:42:29.828Z,39.36
2023-09-01T13:44:57.988Z,38.32
2023-09-01T13:47:25.820Z,37.67
2023-09-01T13:49:53.557Z,38.25
2023-09-01T13:52:21.552Z,39.09
2023-09-01T13:54:50.539Z,38.27
2023-09-01T13:57:17.877Z,37.78
2023-09-01T13:59:44.895Z,38.99
2023-09-01T14:02:11.760Z,38.94
2023-09-01T14:04:38.490Z,38.31
2023-09-01T14:07:05.757Z,38.59
2023-09-01T14:09:32.597Z,37.25
2023-09-01T14:11:59.813Z,37.92
2023-09-01T14:14:26.590Z,37.53
2023-09-01T14:16:53.580Z,37.57
2023-09-01T14:19:20.381Z,37.42
2023-09-01T14:21:47.415Z,37.60
2023-09-01T14:24:14.321Z,37.83
2023-09-01T14:26:42.377Z,39.11
2023-09-01T14:29:09.564Z,37.90
2023-09-01T14:31:36.170Z,36.76
2023-09-01T14:34:03.327Z,38.35
2023-09-01T14:36:30.068Z,38.12
2023-09-01T14:38:57.169Z,38.19
2023-09-01T14:41:27.384Z,38.48
2023-09-01T14:43:54.428Z,39.53
2023-09-01T14:46:23.222Z,39.83
2023-09-01T14:48:50.199Z,38.60
2023-09-01T14:51:18.176Z,39.36
2023-09-01T14:53:48.399Z,40.82
2023-09-01T14:56:16.012Z,40.20
2023-09-01T14:58:43.047Z,39.28
2023-09-01T15:01:09.769Z,40.38
2023-09-01T15:03:36.628Z,39.82
2023-09-01T15:06:03.642Z,40.01
2023-09-01T15:08:30.433Z,40.06
2023-09-01T15:11:02.858Z,40.58
2023-09-01T15:13:30.001Z,41.78
2023-09-01T15:15:56.817Z,40.83
2023-09-01T15:18:23.694Z,40.65
2023-09-01T15:21:10.567Z,40.63
2023-09-01T15:23:39.755Z,40.49
2023-09-01T15:26:10.371Z,40.43
2023-09-01T15:28:37.454Z,41.05
2023-09-01T15:31:08.131Z,40.64
2023-09-01T15:33:35.072Z,41.90
2023-09-01T15:36:02.278Z,40.27
2023-09-01T15:38:30.915Z,40.13
2023-09-01T15:41:01.601Z,40.12
2023-09-01T15:43:28.707Z,41.32
2023-09-01T15:45:58.989Z,42.18
2023-09-01T15:48:26.223Z,39.96
2023-09-01T15:50:57.495Z,40.41
2023-09-01T15:53:25.058Z,41.92
2023-09-01T15:55:54.542Z,42.83
2023-09-01T15:58:21.638Z,44.11
2023-09-01T16:00:53.556Z,44.56
2023-09-01T16:03:26.625Z,46.34
2023-09-01T16:06:01.333Z,49.67
2023-09-01T16:08:28.155Z,51.02
2023-09-01T16:10:55.063Z,53.43
2023-09-01T16:13:21.935Z,54.65
2023-09-01T16:15:49.846Z,56.39
2023-09-01T16:18:18.523Z,57.26
2023-09-01T16:20:45.252Z,58.46
2023-09-01T16:23:12.104Z,59.01
2023-09-01T16:25:39.191Z,59.72
2023-09-01T16:28:06.060Z,60.39
2023-09-01T16:30:36.706Z,61.22
2023-09-01T16:33:04.571Z,61.75
2023-09-01T16:35:31.410Z,63.28
2023-09-01T16:37:58.436Z,64.16
2023-09-01T16:40:25.940Z,64.97
2023-09-01T16:42:54.577Z,66.48
2023-09-01T16:45:21.932Z,67.00
2023-09-01T16:47:49.199Z,68.13
2023-09-01T16:50:17.172Z,69.62
2023-09-01T16:52:44.164Z,70.14
2023-09-01T16:55:11.221Z,71.20
2023-09-01T16:57:38.172Z,71.86
2023-09-01T17:00:06.226Z,72.21
2023-09-01T17:02:33.126Z,73.46
2023-09-01T17:05:00.066Z,74.27
2023-09-01T17:07:26.931Z,75.24
2023-09-01T17:10:08.007Z,76.25
2023-09-01T17:12:35.322Z,77.54
2023-09-01T17:15:03.222Z,77.49
2023-09-01T17:17:30.363Z,77.84
2023-09-01T17:19:57.341Z,79.32
2023-09-01T17:22:24.301Z,79.87
2023-09-01T17:24:51.067Z,79.78
2023-09-01T17:27:18.113Z,80.34
2023-09-01T17:29:44.992Z,80.82
2023-09-01T17:32:11.910Z,81.79
2023-09-01T17:34:38.735Z,82.03
2023-09-01T17:37:05.864Z,83.07
2023-09-01T17:39:32.962Z,83.64
2023-09-01T17:42:00.185Z,84.43
2023-09-01T17:44:27.051Z,85.34
2023-09-01T17:46:53.787Z,85.15
2023-09-01T17:49:20.611Z,85.72
2023-09-01T17:51:47.567Z,86.54
2023-09-01T17:54:14.528Z,87.20
2023-09-01T17:56:41.688Z,87.98
2023-09-01T17:59:08.452Z,88.60
2023-09-01T18:01:35.559Z,89.67
2023-09-01T18:04:02.862Z,90.49
2023-09-01T18:06:31.706Z,91.10
2023-09-01T18:09:00.859Z,91.16
2023-09-01T18:11:27.758Z,91.59
2023-09-01T18:13:54.826Z,92.23
2023-09-01T18:16:21.721Z,92.88
2023-09-01T18:18:49.000Z,92.98
2023-09-01T18:21:15.775Z,92.90
2023-09-01T18:23:42.752Z,93.72
2023-09-01T18:26:14.082Z,94.95
2023-09-01T18:28:46.368Z,95.35
2023-09-01T18:31:23.417Z,95.06
2023-09-01T18:33:53.132Z,95.29
2023-09-01T18:36:26.784Z,95.97
2023-09-01T18:38:56.319Z,96.43
2023-09-01T18:41:24.113Z,96.86
2023-09-01T18:44:00.159Z,97.31
2023-09-01T18:46:31.854Z,98.08
2023-09-01T18:49:04.408Z,98.31
2023-09-01T18:51:35.085Z,98.57
2023-09-01T18:54:20.657Z,98.46
2023-09-01T18:56:49.616Z,98.69
2023-09-01T18:59:21.317Z,99.34
2023-09-01T19:01:48.619Z,99.59
2023-09-01T19:04:16.040Z,100.00
2023-09-01T19:06:43.487Z,100.00
2023-09-01T19:09:14.590Z,100.00
2023-09-01T19:11:44.140Z,100.00
2023-09-01T19:14:11.148Z,100.00
2023-09-01T19:16:39.857Z,100.00
2023-09-01T19:19:08.060Z,100.00
2023-09-01T19:21:35.031Z,100.00
2023-09-01T19:24:02.088Z,100.00
2023-09-01T19:26:30.383Z,100.00
2023-09-01T19:29:01.385Z,100.00
2023-09-01T19:31:29.851Z,100.00
2023-09-01T19:34:01.690Z,100.00
2023-09-01T19:36:30.759Z,100.00
2023-09-01T19:39:00.710Z,100.00
2023-09-01T19:41:29.347Z,100.00
2023-09-01T19:43:57.607Z,100.00
2023-09-01T19:46:25.234Z,100.00
2023-09-01T19:48:55.137Z,100.00
2023-09-01T19:51:22.203Z,100.00
2023-09-01T19:53:49.166Z,100.00
2023-09-01T19:56:18.604Z,100.00
2023-09-01T19:58:54.352Z,100.00
2023-09-01T20:01:26.548Z,100.00
2023-09-01T20:03:54.066Z,100.00
2023-09-01T20:06:28.659Z,100.00
2023-09-01T20:09:02.605Z,100.00
2023-09-01T20:11:29.898Z,100.00
2023-09-01T20:13:56.886Z,100.00
2023-09-01T20:16:27.947Z,100.00
2023-09-01T20:18:55.123Z,100.00
2023-09-01T20:21:22.992Z,100.00
2023-09-01T20:23:50.722Z,100.00
2023-09-01T20:26:17.582Z,100.00
2023-09-01T20:28:44.518Z,100.00
2023-09-01T20:31:12.763Z,100.00
2023-09-01T20:33:39.553Z,100.00
2023-09-01T20:36:06.781Z,100.00
2023-09-01T20:38:33.916Z,100.00
2023-09-01T20:41:00.958Z,100.00
2023-09-01T20:43:28.100Z,100.00
2023-09-01T20:45:56.727Z,100.00
2023-09-01T20:48:23.862Z,100.00
2023-09-01T20:50:50.752Z,100.00
2023-09-01T20:53:18.366Z,100.00
2023-09-01T20:55:45.750Z,100.00
2023-09-01T20:58:12.738Z,100.00
2023-09-01T21:00:40.617Z,100.00
2023-09-01T21:03:07.736Z,100.00
2023-09-01T21:05:34.675Z,100.00
2023-09-01T21:08:01.598Z,100.00
2023-09-01T21:10:28.727Z,100.00
2023-09-01T21:12:55.737Z,100.00
2023-09-01T21:15:22.890Z,100.00
2023-09-01T21:17:49.639Z,100.00
2023-09-01T21:20:16.483Z,100.00
2023-09-01T21:22:43.272Z,100.00
2023-09-01T21:25:10.270Z,100.00
2023-09-01T21:27:37.262Z,100.00
2023-09-01T21:30:18.055Z,100.00
2023-09-01T21:32:45.837Z,100.00
2023-09-01T21:35:12.829Z,100.00
2023-09-01T21:37:40.377Z,100.00
2023-09-01T21:40:09.116Z,100.00
2023-09-01T21:42:37.292Z,100.00
2023-09-01T21:45:05.395Z,100.00
2023-09-01T21:47:36.205Z,100.00
2023-09-01T21:50:03.626Z,100.00
2023-09-01T21:52:30.813Z,100.00
2023-09-01T21:54:57.686Z,100.00
2023-09-01T21:57:27.123Z,100.00
2023-09-01T21:59:54.221Z,100.00
2023-09-01T22:02:21.288Z,100.00
2023-09-01T22:04:51.068Z,100.00
2023-09-01T22:07:19.177Z,100.00
2023-09-01T22:09:45.964Z,100.00
2023-09-01T22:12:12.913Z,100.00
2023-09-01T22:14:39.781Z,100.00
2023-09-01T22:17:06.720Z,100.00
2023-09-01T22:19:33.620Z,100.00
2023-09-01T22:22:01.001Z,100.00
2023-09-01T22:24:32.546Z,100.00
2023-09-01T22:27:00.297Z,100.00
2023-09-01T22:29:28.353Z,100.00
2023-09-01T22:31:57.663Z,100.00
2023-09-01T22:34:24.620Z,100.00
2023-09-01T22:36:51.687Z,100.00
2023-09-01T22:39:18.927Z,100.00
2023-09-01T22:41:52.352Z,100.00
2023-09-01T22:44:19.313Z,100.00
2023-09-01T22:46:46.337Z,100.00
2023-09-01T22:49:13.520Z,100.00
2023-09-01T22:51:40.635Z,100.00
2023-09-01T22:54:08.120Z,100.00
2023-09-01T22:56:35.241Z,100.00
2023-09-01T22:59:02.137Z,100.00
2023-09-01T23:01:28.920Z,100.00
2023-09-01T23:03:56.191Z,100.00
2023-09-01T23:06:22.985Z,100.00
2023-09-01T23:08:49.779Z,100.00
2023-09-01T23:11:17.639Z,100.00
2023-09-01T23:13:44.288Z,100.00
2023-09-01T23:16:14.180Z,100.00
2023-09-01T23:18:40.960Z,100.00
2023-09-01T23:21:07.907Z,100.00
2023-09-01T23:23:34.812Z,100.00
2023-09-01T23:26:02.028Z,100.00
2023-09-01T23:28:31.596Z,100.00
2023-09-01T23:30:58.677Z,100.00
2023-09-01T23:33:25.895Z,100.00
2023-09-01T23:35:54.067Z,100.00
2023-09-01T23:38:20.800Z,100.00
2023-09-01T23:40:47.891Z,100.00
2023-09-01T23:43:15.438Z,100.00
2023-09-01T23:45:42.525Z,100.00
2023-09-01T23:48:09.426Z,100.00
2023-09-01T23:50:36.427Z,100.00
2023-09-01T23:53:03.657Z,100.00
2023-09-01T23:55:31.148Z,100.00
2023-09-01T23:57:57.899Z,100.00
